WetterOnline ( http://www.wetteronline.de )

Wetter aktuell Kempten/Allgäu

Aktuelles Wetter: Kempten (705m)

6-stündlich | Neueste Meldungen
Ortszeit Temperatur Wetter
So, 24.03. 1:00 1.9° C wolkenlos
Sa, 23.03. 19:00 12.4° C leicht bewölkt
Sa, 23.03. 13:00 15.9° C wolkenlos
Sa, 23.03. 7:00 2.4° C wolkig
Sa, 23.03. 1:00 2.5° C wolkenlos
Fr, 22.03. 19:00 10.3° C bewölkt
Fr, 22.03. 13:00 13.8° C leicht bewölkt
Fr, 22.03. 7:00 -2.4° C wolkenlos
Ortszeit Temperatur Wetter
So, 24.03. 6:30 -0.1° C leicht bewölkt
So, 24.03. 6:20 -0.1° C leicht bewölkt
So, 24.03. 6:10 -0.0° C leicht bewölkt
So, 24.03. 6:00 0.2° C leicht bewölkt
So, 24.03. 5:50 0.2° C leicht bewölkt
So, 24.03. 5:40 -0.2° C leicht bewölkt
So, 24.03. 5:30 -0.1° C leicht bewölkt
So, 24.03. 5:00 0.3° C wolkenlos
So, 24.03. 4:30 0.7° C leicht bewölkt
So, 24.03. 4:00 1.5° C wolkenlos
So, 24.03. 3:30 1.3° C leicht bewölkt
Ortszeit Relative Feuchte Sichtweite
So, 24.03. 1:00 86% 7 km
Sa, 23.03. 19:00 51% 6 km
Sa, 23.03. 13:00 32% 9 km
Sa, 23.03. 7:00 68% 35 km
Sa, 23.03. 1:00 79% 13 km
Fr, 22.03. 19:00 56% 12 km
Fr, 22.03. 13:00 38% 17 km
Fr, 22.03. 7:00 90% 9 km
Ortszeit Relative Feuchte Sichtweite
So, 24.03. 6:30 90% 6 km
So, 24.03. 6:20 90% -
So, 24.03. 6:10 90% -
So, 24.03. 6:00 90% 7 km
So, 24.03. 5:50 90% -
So, 24.03. 5:40 90% -
So, 24.03. 5:30 90% 5.0 km
So, 24.03. 5:00 90% 6 km
So, 24.03. 4:30 88% 6 km
So, 24.03. 4:00 87% 7 km
So, 24.03. 3:30 88% 6 km
Ortszeit Niederschlagsmenge Niederschlagsart
So, 24.03. 1:00 0.0 l/m2 in 6 Std. -
Sa, 23.03. 19:00 0.0 l/m2 in 12 Std. -
Sa, 23.03. 13:00 0.0 l/m2 in 6 Std. -
Sa, 23.03. 7:00 0.0 l/m2 in 12 Std. -
Sa, 23.03. 1:00 0.0 l/m2 in 6 Std. -
Fr, 22.03. 19:00 0.0 l/m2 in 12 Std. -
Fr, 22.03. 13:00 0.0 l/m2 in 6 Std. -
Fr, 22.03. 7:00 0.0 l/m2 in 12 Std. -
Ortszeit Niederschlagsmenge Niederschlagsart
So, 24.03. 6:30 0.0 l/m2 in 1 Std. -
So, 24.03. 6:20 keine Meldung -
So, 24.03. 6:10 keine Meldung -
So, 24.03. 6:00 0.0 l/m2 in 1 Std. -
So, 24.03. 5:50 keine Meldung -
So, 24.03. 5:40 keine Meldung -
So, 24.03. 5:30 0.0 l/m2 in 1 Std. -
So, 24.03. 5:00 0.0 l/m2 in 1 Std. -
So, 24.03. 4:30 0.0 l/m2 in 1 Std. -
So, 24.03. 4:00 0.0 l/m2 in 1 Std. -
So, 24.03. 3:30 0.0 l/m2 in 1 Std. -
Ortszeit Stärke Spitze Richtung
km/h Bft. km/h Grad Sektor
So, 24.03. 1:00 7 2 11 110° O
Sa, 23.03. 19:00 4 1 22 60° NO
Sa, 23.03. 13:00 7 2 14 350° N
Sa, 23.03. 7:00 9 2 19 160° S
Sa, 23.03. 1:00 7 2 14 120° SO
Fr, 22.03. 19:00 4 1 18 100° O
Fr, 22.03. 13:00 7 2 18 10° N
Fr, 22.03. 7:00 2 1 13 160° S
Ortszeit Stärke Spitze Richtung
km/h Bft. km/h Grad Sektor
So, 24.03. 6:30 7 2 11 130° SO
So, 24.03. 6:20 7 2 - 130° SO
So, 24.03. 6:10 9 2 - 120° SO
So, 24.03. 6:00 7 2 11 120° SO
So, 24.03. 5:50 7 2 - 120° SO
So, 24.03. 5:40 7 2 - 120° SO
So, 24.03. 5:30 7 2 11 110° O
So, 24.03. 5:00 7 2 13 110° O
So, 24.03. 4:30 9 2 13 110° O
So, 24.03. 4:00 7 2 11 110° O
So, 24.03. 3:30 9 2 13 110° O
Ortszeit Untergrenze Bedeckung Gattung
total tief tief mittel hoch
So, 24.03. 1:00 - 0/8 0/8 - - -
Sa, 23.03. 19:00 10500 m 4/8 0/8 - - -
Sa, 23.03. 13:00 - 0/8 0/8 - - -
Sa, 23.03. 7:00 10500 m 8/8 0/8 - - -
Sa, 23.03. 1:00 - 0/8 0/8 - - -
Fr, 22.03. 19:00 6600 m 8/8 4/8 - - -
Fr, 22.03. 13:00 8700 m 7/8 0/8 - - -
Fr, 22.03. 7:00 - 0/8 0/8 - - -
Ortszeit Bedeckungsgrad in Achtel und Wolkenuntergrenze
So, 24.03. 6:30 4(10500m)
So, 24.03. 6:20 4(10500m)
So, 24.03. 6:10 5(10500m)
So, 24.03. 6:00 5(10500m)
So, 24.03. 5:50 5(10500m)
So, 24.03. 5:40 5(10500m)
So, 24.03. 5:30 3(10500m)
So, 24.03. 5:00 3(10500m)
So, 24.03. 4:30 3(9000m)
So, 24.03. 4:00 keine Wolken
So, 24.03. 3:30 3(10500m)
Ortszeit Luftdruck NN (hPa) Tendenz (hPa in 3 Std.)
So, 24.03. 1:00 1028 - 1,2
Sa, 23.03. 19:00 1025 0,0
Sa, 23.03. 13:00 1025 - 1,1
Sa, 23.03. 7:00 1031 + 0,1
Sa, 23.03. 1:00 1031 - 0,1
Fr, 22.03. 19:00 1028 - 0,1
Fr, 22.03. 13:00 1028 - 0,8
Fr, 22.03. 7:00 1034 + 0,6
Ortszeit Luftdruck NN (hPa) Tendenz (hPa in 3 Std.)
So, 24.03. 6:30 1028 - 0,1
So, 24.03. 6:20 1028 keine Meldung
So, 24.03. 6:10 1028 keine Meldung
So, 24.03. 6:00 1027 - 0,4
So, 24.03. 5:50 1027 keine Meldung
So, 24.03. 5:40 1028 keine Meldung
So, 24.03. 5:30 1027 - 0,8
So, 24.03. 5:00 1027 - 1,1
So, 24.03. 4:30 1027 - 1,2
So, 24.03. 4:00 1027 - 1,2
So, 24.03. 3:30 1027 - 1,5
Ortszeit Schneehöhe (cm)
So, 24.03. 1:00 0
Sa, 23.03. 19:00 0
Sa, 23.03. 13:00 0
Sa, 23.03. 7:00 0
Sa, 23.03. 1:00 0
Fr, 22.03. 19:00 0
Fr, 22.03. 13:00 0
Fr, 22.03. 7:00 0
Ortszeit Schneehöhe (cm)
So, 24.03. 6:30 0
So, 24.03. 6:20 0
So, 24.03. 6:10 0
So, 24.03. 6:00 0
So, 24.03. 5:50 0
So, 24.03. 5:40 0
So, 24.03. 5:30 0
So, 24.03. 5:00 0
So, 24.03. 4:30 0
So, 24.03. 4:00 0
So, 24.03. 3:30 0
Link zu dieser Seite / Seite empfehlen

Das Wetter in ...